createdAt,value
2022-10-30T00:02:37.278Z,84.05
2022-10-30T00:05:21.178Z,80.35
2022-10-30T00:08:10.088Z,81.57
2022-10-30T00:11:00.107Z,83.90
2022-10-30T00:13:45.823Z,85.65
2022-10-30T00:16:34.198Z,83.40
2022-10-30T00:19:29.060Z,85.10
2022-10-30T00:22:25.251Z,85.85
2022-10-30T00:25:14.481Z,83.50
2022-10-30T00:27:56.205Z,85.65
2022-10-30T00:30:46.092Z,85.22
2022-10-30T00:33:28.486Z,85.60
2022-10-30T00:36:19.188Z,84.07
2022-10-30T00:39:01.581Z,84.88
2022-10-30T00:41:50.114Z,85.78
2022-10-30T00:44:55.460Z,86.32
2022-10-30T00:47:52.096Z,86.85
2022-10-30T00:50:42.627Z,85.47
2022-10-30T00:53:31.104Z,88.20
2022-10-30T00:56:16.924Z,89.18
2022-10-30T00:59:10.105Z,90.30
2022-10-30T01:02:02.272Z,88.57
2022-10-30T01:04:53.489Z,87.53
2022-10-30T01:07:35.146Z,90.13
2022-10-30T01:10:25.548Z,89.53
2022-10-30T01:13:10.315Z,92.38
2022-10-30T01:16:42.496Z,88.93
2022-10-30T01:19:38.203Z,86.63
2022-10-30T01:22:48.496Z,86.10
2022-10-30T01:25:33.208Z,89.57
2022-10-30T01:28:54.091Z,86.95
2022-10-30T01:31:46.181Z,87.32
2022-10-30T01:34:57.266Z,89.07
2022-10-30T01:37:54.263Z,88.13
2022-10-30T01:40:44.443Z,89.55
2022-10-30T01:43:26.101Z,88.63
2022-10-30T01:46:50.531Z,88.35
2022-10-30T01:49:53.112Z,91.10
2022-10-30T01:52:57.679Z,91.45
2022-10-30T01:55:51.110Z,91.05
2022-10-30T01:58:49.490Z,91.18
2022-10-30T02:01:33.209Z,93.45
2022-10-30T02:04:22.472Z,95.80
2022-10-30T02:07:05.088Z,94.95
2022-10-30T02:09:55.381Z,100.65
2022-10-30T02:12:45.131Z,100.95
2022-10-30T02:15:34.207Z,101.90
2022-10-30T02:18:23.177Z,104.43
2022-10-30T02:21:12.447Z,108.35
2022-10-30T02:23:55.194Z,112.25
2022-10-30T02:26:44.084Z,111.80
2022-10-30T02:29:26.549Z,108.55
2022-10-30T02:32:15.390Z,113.82
2022-10-30T02:34:57.461Z,117.43
2022-10-30T02:37:47.175Z,119.57
2022-10-30T02:40:29.440Z,119.63
2022-10-30T02:43:18.090Z,121.95
2022-10-30T02:46:08.229Z,124.75
2022-10-30T02:48:56.461Z,129.77
2022-10-30T02:51:42.274Z,127.55
2022-10-30T02:54:30.468Z,127.85
2022-10-30T02:57:13.240Z,128.02
2022-10-30T02:59:55.374Z,129.82
2022-10-30T03:02:45.210Z,131.05
2022-10-30T03:05:28.517Z,130.63
2022-10-30T03:08:17.093Z,129.88
2022-10-30T03:11:07.768Z,129.98
2022-10-30T03:13:57.200Z,131.07
2022-10-30T03:16:46.173Z,136.27
2022-10-30T03:19:28.427Z,132.25
2022-10-30T03:22:17.166Z,134.68
2022-10-30T03:24:59.528Z,132.90
2022-10-30T03:27:49.082Z,140.90
2022-10-30T03:30:38.176Z,134.80
2022-10-30T03:33:20.351Z,135.48
2022-10-30T03:36:09.173Z,132.18
2022-10-30T03:38:58.161Z,137.30
2022-10-30T03:41:41.482Z,134.15
2022-10-30T03:44:30.163Z,131.80
2022-10-30T03:50:06.167Z,132.85
2022-10-30T03:52:48.449Z,134.68
2022-10-30T03:55:37.166Z,135.40
2022-10-30T03:58:20.449Z,133.77
2022-10-30T04:01:15.323Z,131.02
2022-10-30T04:04:03.458Z,132.77
2022-10-30T04:06:52.179Z,131.52
2022-10-30T04:09:34.582Z,130.93
2022-10-30T04:12:23.160Z,127.05
2022-10-30T04:15:05.518Z,129.02
2022-10-30T04:17:59.598Z,126.47
2022-10-30T04:20:50.450Z,126.65
2022-10-30T04:23:32.190Z,118.30
2022-10-30T04:26:21.137Z,118.60
2022-10-30T04:29:10.198Z,116.85
2022-10-30T04:31:59.507Z,117.43
2022-10-30T04:34:42.087Z,116.68
2022-10-30T04:37:30.434Z,115.00
2022-10-30T04:40:13.091Z,112.47
2022-10-30T04:43:04.129Z,114.50
2022-10-30T04:45:55.195Z,113.38
2022-10-30T04:48:44.567Z,114.75
2022-10-30T04:51:29.169Z,114.68
2022-10-30T04:54:23.121Z,103.50
2022-10-30T04:57:06.153Z,104.07
2022-10-30T04:59:57.155Z,102.97
2022-10-30T05:05:33.184Z,96.18
2022-10-30T05:08:16.491Z,91.75
2022-10-30T05:11:05.172Z,94.63
2022-10-30T05:13:54.162Z,99.28
2022-10-30T05:16:36.563Z,104.10
2022-10-30T05:19:25.289Z,103.70
2022-10-30T05:22:21.024Z,105.07
2022-10-30T05:25:10.182Z,111.07
2022-10-30T05:27:53.446Z,105.03
2022-10-30T05:30:44.254Z,109.13
2022-10-30T05:33:44.884Z,99.03
2022-10-30T05:36:35.149Z,84.88
2022-10-30T05:39:18.487Z,72.68
2022-10-30T05:42:11.227Z,73.78
2022-10-30T05:45:00.959Z,77.18
2022-10-30T05:47:51.195Z,73.00
2022-10-30T05:50:34.449Z,74.90
2022-10-30T05:53:33.163Z,75.38
2022-10-30T05:56:23.060Z,72.53
2022-10-30T05:59:12.470Z,66.25
2022-10-30T06:01:55.147Z,67.68
2022-10-30T06:04:37.392Z,66.22
2022-10-30T06:07:28.087Z,63.60
2022-10-30T06:10:24.249Z,62.95
2022-10-30T06:13:22.313Z,63.65
2022-10-30T06:19:39.231Z,65.43
2022-10-30T06:23:02.644Z,66.27
2022-10-30T06:25:58.156Z,66.70
2022-10-30T06:28:55.138Z,70.97
2022-10-30T06:31:38.616Z,77.57
2022-10-30T06:34:28.179Z,78.80
2022-10-30T06:37:10.548Z,86.50
2022-10-30T06:40:00.202Z,86.73
2022-10-30T06:43:01.793Z,85.53
2022-10-30T06:48:44.464Z,74.95
2022-10-30T06:51:34.168Z,83.57
2022-10-30T06:54:16.615Z,82.25
2022-10-30T06:57:28.089Z,76.72
2022-10-30T07:00:41.287Z,84.38
2022-10-30T07:03:53.201Z,84.63
2022-10-30T07:06:42.070Z,83.53
2022-10-30T07:09:26.443Z,83.40
2022-10-30T07:12:15.198Z,78.88
2022-10-30T07:15:26.166Z,79.75
2022-10-30T07:18:23.464Z,82.38
2022-10-30T07:21:14.208Z,79.10
2022-10-30T07:24:03.204Z,76.53
2022-10-30T07:27:11.302Z,77.47
2022-10-30T07:30:06.089Z,82.65
2022-10-30T07:33:17.371Z,77.88
2022-10-30T07:36:24.179Z,64.32
2022-10-30T07:39:24.365Z,60.10
2022-10-30T07:42:21.194Z,59.70
2022-10-30T07:45:22.302Z,60.17
2022-10-30T07:48:29.097Z,58.13
2022-10-30T07:51:37.233Z,60.28
2022-10-30T07:54:21.525Z,61.78
2022-10-30T07:57:12.101Z,64.65
2022-10-30T08:00:15.502Z,70.97
2022-10-30T08:03:14.228Z,70.53
2022-10-30T08:06:04.453Z,65.25
2022-10-30T08:08:54.083Z,62.42
2022-10-30T08:11:37.463Z,64.80
2022-10-30T08:14:26.253Z,65.83
2022-10-30T08:17:11.458Z,64.03
2022-10-30T08:20:01.222Z,63.17
2022-10-30T08:22:55.730Z,66.32
2022-10-30T08:25:39.178Z,65.60
2022-10-30T08:28:31.665Z,63.97
2022-10-30T08:31:18.420Z,62.10
2022-10-30T08:34:19.217Z,64.25
2022-10-30T08:37:03.511Z,60.35
2022-10-30T08:39:52.203Z,57.13
2022-10-30T08:42:48.442Z,54.55
2022-10-30T08:48:31.086Z,53.55
2022-10-30T08:51:20.468Z,50.70
2022-10-30T08:54:02.165Z,48.85
2022-10-30T08:56:50.448Z,48.58
2022-10-30T08:59:33.189Z,47.08
2022-10-30T09:02:21.419Z,45.95
2022-10-30T09:05:28.085Z,45.60
2022-10-30T09:08:36.440Z,47.58
2022-10-30T09:11:45.152Z,46.67
2022-10-30T09:14:33.487Z,45.67
2022-10-30T09:17:17.080Z,42.53
2022-10-30T09:22:56.487Z,41.33
2022-10-30T09:25:51.162Z,43.13
2022-10-30T09:29:00.173Z,41.97
2022-10-30T09:31:48.634Z,40.60
2022-10-30T09:34:41.228Z,39.70
2022-10-30T09:37:36.104Z,35.30
2022-10-30T09:40:58.874Z,34.25
2022-10-30T09:44:26.061Z,34.22
2022-10-30T09:47:23.166Z,32.58
2022-10-30T09:50:14.787Z,30.85
2022-10-30T09:53:20.177Z,35.60
2022-10-30T09:56:11.486Z,37.83
2022-10-30T09:59:13.241Z,37.78
2022-10-30T10:02:01.559Z,39.78
2022-10-30T10:04:56.200Z,39.78
2022-10-30T10:08:03.560Z,39.40
2022-10-30T10:11:21.238Z,38.70
2022-10-30T10:14:10.596Z,38.17
2022-10-30T10:17:02.184Z,37.22
2022-10-30T10:19:59.076Z,36.20
2022-10-30T10:23:04.139Z,38.40
2022-10-30T10:26:00.160Z,36.90
2022-10-30T10:29:00.512Z,40.35
2022-10-30T10:32:19.158Z,37.97
2022-10-30T10:35:19.443Z,40.40
2022-10-30T10:38:26.176Z,40.00
2022-10-30T10:41:12.484Z,41.28
2022-10-30T10:44:25.097Z,41.33
2022-10-30T10:47:40.124Z,42.38
2022-10-30T10:50:48.648Z,41.42
2022-10-30T10:53:43.173Z,42.03
2022-10-30T10:56:33.292Z,44.22
2022-10-30T10:59:35.083Z,44.13
2022-10-30T11:02:39.268Z,42.28
2022-10-30T11:05:46.085Z,45.63
2022-10-30T11:08:41.072Z,44.10
2022-10-30T11:11:23.510Z,44.67
2022-10-30T11:14:33.076Z,44.60
2022-10-30T11:18:03.406Z,45.97
2022-10-30T11:21:10.991Z,45.33
2022-10-30T11:24:01.117Z,46.60
2022-10-30T11:26:43.465Z,47.05
2022-10-30T11:29:37.145Z,49.38
2022-10-30T11:32:27.610Z,46.75
2022-10-30T11:35:16.073Z,46.92
2022-10-30T11:38:19.426Z,45.90
2022-10-30T11:41:10.080Z,47.47
2022-10-30T11:43:54.476Z,50.50
2022-10-30T11:46:44.071Z,49.45
2022-10-30T11:50:06.218Z,48.72
2022-10-30T11:53:03.489Z,48.90
2022-10-30T11:55:54.149Z,48.35
2022-10-30T11:58:39.918Z,47.63
2022-10-30T12:01:50.140Z,50.83
2022-10-30T12:04:39.414Z,48.90
2022-10-30T12:07:37.068Z,48.42
2022-10-30T12:10:30.576Z,49.38
2022-10-30T12:13:20.152Z,52.83
2022-10-30T12:16:21.659Z,50.85
2022-10-30T12:19:17.131Z,51.78
2022-10-30T12:22:05.268Z,52.25
2022-10-30T12:24:59.057Z,50.80
2022-10-30T12:27:48.082Z,51.55
2022-10-30T12:30:30.418Z,52.65
2022-10-30T12:33:33.177Z,51.95
2022-10-30T12:36:31.152Z,52.63
2022-10-30T12:39:31.536Z,53.05
2022-10-30T12:42:33.153Z,53.60
2022-10-30T12:45:31.144Z,53.33
2022-10-30T12:48:16.814Z,53.22
2022-10-30T12:51:29.169Z,53.97
2022-10-30T12:54:40.477Z,51.78
2022-10-30T12:57:45.145Z,53.17
2022-10-30T13:00:27.591Z,54.83
2022-10-30T13:03:46.153Z,52.83
2022-10-30T13:06:35.592Z,53.88
2022-10-30T13:09:34.152Z,53.55
2022-10-30T13:12:33.136Z,52.90
2022-10-30T13:15:37.149Z,54.20
2022-10-30T13:21:28.089Z,52.45
2022-10-30T13:24:23.816Z,54.15
2022-10-30T13:27:16.149Z,55.40
2022-10-30T13:30:19.436Z,56.80
2022-10-30T13:33:19.176Z,58.08
2022-10-30T13:36:09.814Z,57.00
2022-10-30T13:39:05.161Z,56.08
2022-10-30T13:42:17.934Z,56.55
2022-10-30T13:45:29.156Z,59.63
2022-10-30T13:48:40.182Z,58.03
2022-10-30T13:51:50.598Z,60.75
2022-10-30T13:55:08.064Z,59.95
2022-10-30T13:58:09.800Z,60.58
2022-10-30T14:01:20.246Z,61.15
2022-10-30T14:04:14.364Z,61.03
2022-10-30T14:07:23.165Z,63.30
2022-10-30T14:10:48.113Z,61.35
2022-10-30T14:13:41.139Z,65.03
2022-10-30T14:16:32.296Z,64.65
2022-10-30T14:19:23.152Z,62.97
2022-10-30T14:22:17.985Z,64.97
2022-10-30T14:25:08.350Z,61.03
2022-10-30T14:27:57.482Z,67.75
2022-10-30T14:30:46.205Z,65.18
2022-10-30T14:33:49.969Z,65.43
2022-10-30T14:36:48.082Z,66.28
2022-10-30T14:39:44.161Z,68.65
2022-10-30T14:42:32.169Z,68.70
2022-10-30T14:45:57.149Z,71.63
2022-10-30T14:49:03.653Z,72.55
2022-10-30T14:52:14.097Z,73.32
2022-10-30T14:55:11.116Z,72.57
2022-10-30T14:57:55.679Z,72.45
2022-10-30T15:00:45.063Z,75.53
2022-10-30T15:03:56.433Z,76.20
2022-10-30T15:07:12.020Z,75.85
2022-10-30T15:10:21.109Z,76.32
2022-10-30T15:13:18.128Z,75.10
2022-10-30T15:16:23.160Z,78.38
2022-10-30T15:19:15.535Z,79.03
2022-10-30T15:22:01.134Z,80.07
2022-10-30T15:24:43.594Z,81.15
2022-10-30T15:27:35.126Z,79.43
2022-10-30T15:30:30.076Z,80.20
2022-10-30T15:33:32.067Z,80.97
2022-10-30T15:36:39.147Z,82.57
2022-10-30T15:39:21.368Z,81.22
2022-10-30T15:42:14.057Z,80.82
2022-10-30T15:45:02.452Z,87.13
2022-10-30T15:47:45.679Z,85.95
2022-10-30T15:50:35.067Z,87.38
2022-10-30T15:53:28.434Z,84.88
2022-10-30T15:56:29.064Z,83.63
2022-10-30T15:59:21.131Z,85.53
2022-10-30T16:02:03.703Z,83.85
2022-10-30T16:04:53.156Z,88.40
2022-10-30T16:07:35.556Z,88.63
2022-10-30T16:10:25.162Z,86.78
2022-10-30T16:13:07.532Z,89.32
2022-10-30T16:15:57.150Z,90.40
2022-10-30T16:18:40.557Z,89.47
2022-10-30T16:21:34.144Z,90.28
2022-10-30T16:24:26.109Z,90.88
2022-10-30T16:27:26.627Z,92.32
2022-10-30T16:30:30.237Z,94.55
2022-10-30T16:33:20.545Z,94.28
2022-10-30T16:36:04.090Z,99.60
2022-10-30T16:38:57.073Z,97.35
2022-10-30T16:41:41.537Z,102.15
2022-10-30T16:44:44.154Z,103.82
2022-10-30T16:47:33.045Z,101.30
2022-10-30T16:50:25.145Z,102.22
2022-10-30T16:53:44.120Z,106.47
2022-10-30T16:56:32.835Z,107.45
2022-10-30T16:59:46.115Z,105.70
2022-10-30T17:02:43.612Z,107.63
2022-10-30T17:05:45.032Z,110.97
2022-10-30T17:09:04.109Z,108.28
2022-10-30T17:11:49.708Z,106.00
2022-10-30T17:14:38.117Z,114.57
2022-10-30T17:17:38.547Z,112.75
2022-10-30T17:20:46.164Z,112.05
2022-10-30T17:23:35.109Z,112.03
2022-10-30T17:26:27.057Z,111.22
2022-10-30T17:30:00.212Z,110.82
2022-10-30T17:32:52.444Z,111.53
2022-10-30T17:35:35.021Z,116.20
2022-10-30T17:38:17.513Z,117.68
2022-10-30T17:41:06.169Z,114.00
2022-10-30T17:44:02.570Z,114.90
2022-10-30T17:46:45.206Z,115.47
2022-10-30T17:49:37.047Z,115.03
2022-10-30T17:52:25.861Z,117.65
2022-10-30T17:55:34.164Z,120.88
2022-10-30T17:58:16.538Z,118.65
2022-10-30T18:01:06.330Z,117.72
2022-10-30T18:03:48.464Z,119.78
2022-10-30T18:06:37.206Z,119.40
2022-10-30T18:09:20.636Z,118.15
2022-10-30T18:12:09.588Z,121.72
2022-10-30T18:14:52.579Z,119.13
2022-10-30T18:17:41.166Z,116.70
2022-10-30T18:20:23.480Z,115.97
2022-10-30T18:23:31.467Z,114.90
2022-10-30T18:26:15.761Z,116.18
2022-10-30T18:29:05.038Z,115.22
2022-10-30T18:31:54.727Z,117.55
2022-10-30T18:34:36.173Z,118.13
2022-10-30T18:37:25.588Z,116.90
2022-10-30T18:40:07.071Z,118.32
2022-10-30T18:42:49.638Z,119.53
2022-10-30T18:45:51.122Z,118.80
2022-10-30T18:48:40.083Z,115.68
2022-10-30T18:51:40.151Z,117.40
2022-10-30T18:54:22.383Z,118.57
2022-10-30T18:57:11.046Z,118.68
2022-10-30T19:00:01.829Z,119.82
2022-10-30T19:02:45.141Z,120.68
2022-10-30T19:05:35.346Z,118.28
2022-10-30T19:08:25.022Z,117.53
2022-10-30T19:11:07.867Z,119.65
2022-10-30T19:13:57.114Z,119.45
2022-10-30T19:16:46.032Z,116.88
2022-10-30T19:19:35.039Z,117.30
2022-10-30T19:22:17.642Z,116.75
2022-10-30T19:25:06.069Z,116.60
2022-10-30T19:27:55.424Z,116.82
2022-10-30T19:30:38.215Z,120.00
2022-10-30T19:33:31.554Z,117.25
2022-10-30T19:36:14.207Z,114.68
2022-10-30T19:38:57.136Z,119.82
2022-10-30T19:41:47.204Z,118.55
2022-10-30T19:44:36.428Z,114.88
2022-10-30T19:47:19.128Z,119.18
2022-10-30T19:50:08.037Z,115.65
2022-10-30T19:52:50.535Z,116.05
2022-10-30T19:55:42.189Z,114.72
2022-10-30T19:58:26.134Z,114.22
2022-10-30T20:01:15.388Z,115.47
2022-10-30T20:03:57.426Z,117.47
2022-10-30T20:06:46.178Z,118.63
2022-10-30T20:09:29.469Z,115.60
2022-10-30T20:12:18.187Z,116.15
2022-10-30T20:15:00.403Z,116.93
2022-10-30T20:17:49.136Z,119.43
2022-10-30T20:20:37.440Z,119.40
2022-10-30T20:23:35.191Z,121.18
2022-10-30T20:26:39.439Z,118.60
2022-10-30T20:29:28.036Z,115.68
2022-10-30T20:32:23.947Z,118.70
2022-10-30T20:35:13.106Z,117.82
2022-10-30T20:38:17.090Z,116.63
2022-10-30T20:41:01.185Z,117.45
2022-10-30T20:43:52.138Z,118.88
2022-10-30T20:46:40.407Z,117.97
2022-10-30T20:49:23.115Z,121.45
2022-10-30T20:52:05.425Z,121.30
2022-10-30T20:54:54.149Z,120.93
2022-10-30T21:00:30.029Z,122.25
2022-10-30T21:03:19.424Z,121.78
2022-10-30T21:06:07.110Z,120.47
2022-10-30T21:08:49.303Z,120.88
2022-10-30T21:11:38.100Z,122.78
2022-10-30T21:14:26.412Z,121.32
2022-10-30T21:17:09.097Z,123.00
2022-10-30T21:19:51.280Z,120.82
2022-10-30T21:22:40.432Z,121.65
2022-10-30T21:25:28.441Z,118.78
2022-10-30T21:28:11.165Z,120.80
2022-10-30T21:31:05.945Z,122.03
2022-10-30T21:34:01.151Z,119.22
2022-10-30T21:36:43.418Z,120.15
2022-10-30T21:39:32.011Z,120.00
2022-10-30T21:42:20.424Z,121.13
2022-10-30T21:45:03.115Z,122.75
2022-10-30T21:47:51.402Z,120.67
2022-10-30T21:50:33.144Z,122.82
2022-10-30T21:53:21.380Z,123.78
2022-10-30T21:56:04.160Z,121.35
2022-10-30T21:58:46.742Z,123.85
2022-10-30T22:01:42.078Z,127.18
2022-10-30T22:04:31.702Z,126.38
2022-10-30T22:07:13.014Z,125.80
2022-10-30T22:10:01.406Z,123.80
2022-10-30T22:12:43.083Z,125.70
2022-10-30T22:15:32.002Z,124.30
2022-10-30T22:18:21.096Z,125.85
2022-10-30T22:21:16.009Z,124.47
2022-10-30T22:23:58.437Z,125.38
2022-10-30T22:26:47.015Z,131.50
2022-10-30T22:29:36.113Z,125.78
2022-10-30T22:32:24.991Z,123.97
2022-10-30T22:35:14.097Z,124.65
2022-10-30T22:38:05.995Z,125.90
2022-10-30T22:40:48.387Z,125.35
2022-10-30T22:43:37.066Z,128.30
2022-10-30T22:46:20.392Z,127.57
2022-10-30T22:49:09.003Z,131.97
2022-10-30T22:51:58.133Z,127.85
2022-10-30T22:54:46.386Z,133.52
2022-10-30T22:57:28.149Z,133.95
2022-10-30T23:00:19.236Z,134.80
2022-10-30T23:03:02.689Z,133.25
2022-10-30T23:05:45.258Z,136.68
2022-10-30T23:08:34.015Z,139.65
2022-10-30T23:11:23.974Z,139.57
2022-10-30T23:14:06.372Z,138.10
2022-10-30T23:16:56.002Z,139.18
2022-10-30T23:19:38.393Z,140.75
2022-10-30T23:22:27.137Z,141.82
2022-10-30T23:25:09.400Z,144.15
2022-10-30T23:27:58.658Z,145.35
2022-10-30T23:30:42.443Z,148.63
2022-10-30T23:33:31.102Z,154.43
2022-10-30T23:36:14.372Z,149.55
2022-10-30T23:39:08.034Z,150.48
2022-10-30T23:41:58.001Z,144.75
2022-10-30T23:44:40.277Z,151.00
2022-10-30T23:47:28.996Z,144.50
2022-10-30T23:50:18.608Z,148.73
2022-10-30T23:53:00.081Z,143.63
2022-10-30T23:55:42.255Z,148.10
2022-10-30T23:58:30.993Z,144.57
